createdAt,value
2016-11-27T00:00:01.127Z,7.51
2016-11-27T00:00:27.640Z,7.57
2016-11-27T00:00:49.370Z,7.62
2016-11-27T00:01:16.871Z,7.69
2016-11-27T00:01:38.601Z,7.73
2016-11-27T00:02:00.335Z,7.73
2016-11-27T00:02:49.539Z,7.71
2016-11-27T00:03:11.290Z,7.67
2016-11-27T00:03:33.024Z,7.62
2016-11-27T00:03:54.757Z,7.59
2016-11-27T00:04:16.514Z,7.58
2016-11-27T00:04:42.045Z,7.58
2016-11-27T00:05:03.786Z,7.56
2016-11-27T00:05:25.519Z,7.52
2016-11-27T00:05:47.271Z,7.50
2016-11-27T00:06:13.785Z,7.51
2016-11-27T00:06:35.563Z,7.52
2016-11-27T00:06:57.290Z,7.50
2016-11-27T00:07:19.034Z,7.49
2016-11-27T00:07:40.756Z,7.47
2016-11-27T00:08:02.482Z,7.48
2016-11-27T00:08:24.216Z,7.48
2016-11-27T00:08:45.940Z,7.49
2016-11-27T00:09:07.889Z,7.50
2016-11-27T00:09:29.520Z,7.56
2016-11-27T00:09:51.250Z,7.55
2016-11-27T00:10:12.990Z,7.50
2016-11-27T00:10:39.483Z,7.49
2016-11-27T00:11:01.222Z,7.50
2016-11-27T00:11:22.999Z,7.51
2016-11-27T00:11:44.730Z,7.56
2016-11-27T00:12:06.461Z,7.55
2016-11-27T00:12:28.212Z,7.54
2016-11-27T00:12:50.935Z,7.55
2016-11-27T00:13:12.665Z,7.56
2016-11-27T00:14:00.900Z,7.52
2016-11-27T00:14:22.639Z,7.50
2016-11-27T00:14:44.366Z,7.49
2016-11-27T00:15:06.089Z,7.44
2016-11-27T00:15:28.817Z,7.41
2016-11-27T00:15:50.549Z,7.42
2016-11-27T00:16:12.279Z,7.45
2016-11-27T00:16:34.015Z,7.45
2016-11-27T00:16:55.759Z,7.47
2016-11-27T00:17:18.495Z,7.48
2016-11-27T00:17:40.238Z,7.46
2016-11-27T00:18:01.952Z,7.49
2016-11-27T00:18:23.682Z,7.55
2016-11-27T00:18:50.174Z,7.51
2016-11-27T00:19:11.899Z,7.48
2016-11-27T00:19:33.633Z,7.47
2016-11-27T00:20:00.134Z,7.42
2016-11-27T00:20:21.863Z,7.44
2016-11-27T00:20:50.351Z,7.47
2016-11-27T00:21:12.118Z,7.48
2016-11-27T00:21:33.855Z,7.50
2016-11-27T00:21:55.576Z,7.45
2016-11-27T00:22:17.402Z,7.47
2016-11-27T00:22:39.115Z,7.48
2016-11-27T00:23:00.850Z,7.51
2016-11-27T00:23:22.586Z,7.53
2016-11-27T00:23:44.329Z,7.49
2016-11-27T00:24:07.074Z,7.50
2016-11-27T00:24:33.569Z,7.48
2016-11-27T00:24:55.297Z,7.46
2016-11-27T00:25:17.084Z,7.46
2016-11-27T00:25:38.820Z,7.51
2016-11-27T00:26:00.554Z,7.51
2016-11-27T00:26:22.277Z,7.56
2016-11-27T00:26:44.016Z,7.58
2016-11-27T00:27:05.754Z,7.58
2016-11-27T00:27:28.494Z,7.62
2016-11-27T00:27:55.119Z,7.63
2016-11-27T00:28:17.847Z,7.61
2016-11-27T00:28:39.579Z,7.61
2016-11-27T00:29:01.304Z,7.56
2016-11-27T00:29:23.052Z,7.53
2016-11-27T00:29:44.790Z,7.52
2016-11-27T00:30:06.539Z,7.52
2016-11-27T00:30:33.037Z,7.50
2016-11-27T00:30:54.779Z,7.48
2016-11-27T00:31:16.514Z,7.46
2016-11-27T00:31:38.244Z,7.46
2016-11-27T00:32:00.065Z,7.45
2016-11-27T00:32:21.807Z,7.46
2016-11-27T00:32:43.535Z,7.51
2016-11-27T00:33:05.250Z,7.54
2016-11-27T00:33:27.982Z,7.57
2016-11-27T00:33:51.263Z,7.58
2016-11-27T00:34:12.992Z,7.60
2016-11-27T00:34:35.744Z,7.60
2016-11-27T00:34:57.495Z,7.58
2016-11-27T00:35:19.221Z,7.57
2016-11-27T00:35:40.944Z,7.57
2016-11-27T00:36:02.678Z,7.58
2016-11-27T00:36:29.183Z,7.60
2016-11-27T00:36:50.911Z,7.63
2016-11-27T00:37:12.646Z,7.64
2016-11-27T00:37:34.386Z,7.63
2016-11-27T00:37:56.120Z,7.63
2016-11-27T00:38:22.613Z,7.62
2016-11-27T00:38:44.355Z,7.61
2016-11-27T00:39:06.077Z,7.60
2016-11-27T00:39:27.826Z,7.57
2016-11-27T00:39:49.562Z,7.54
2016-11-27T00:40:12.304Z,7.52
2016-11-27T00:40:34.047Z,7.51
2016-11-27T00:40:55.805Z,7.51
2016-11-27T00:41:22.304Z,7.49
2016-11-27T00:41:44.025Z,7.47
2016-11-27T00:42:05.764Z,7.43
2016-11-27T00:42:27.511Z,7.43
2016-11-27T00:42:49.238Z,7.45
2016-11-27T00:43:11.003Z,7.49
2016-11-27T00:43:33.734Z,7.53
2016-11-27T00:43:55.503Z,7.51
2016-11-27T00:44:17.234Z,7.52
2016-11-27T00:44:39.956Z,7.53
2016-11-27T00:45:01.970Z,7.50
2016-11-27T00:45:23.662Z,7.47
2016-11-27T00:45:45.404Z,7.44
2016-11-27T00:46:07.136Z,7.44
2016-11-27T00:46:56.382Z,7.43
2016-11-27T00:47:18.149Z,7.40
2016-11-27T00:47:39.881Z,7.37
2016-11-27T00:48:01.622Z,7.38
2016-11-27T00:48:23.356Z,7.33
2016-11-27T00:48:49.864Z,7.33
2016-11-27T00:49:11.607Z,7.36
2016-11-27T00:49:33.344Z,7.37
2016-11-27T00:49:55.092Z,7.39
2016-11-27T00:50:16.809Z,7.41
2016-11-27T00:50:38.530Z,7.45
2016-11-27T00:51:00.276Z,7.48
2016-11-27T00:51:22.003Z,7.49
2016-11-27T00:51:43.732Z,7.51
2016-11-27T00:52:05.467Z,7.52
2016-11-27T00:52:27.221Z,7.54
2016-11-27T00:52:48.958Z,7.58
2016-11-27T00:53:12.694Z,7.60
2016-11-27T00:53:34.436Z,7.57
2016-11-27T00:54:01.939Z,7.55
2016-11-27T00:54:58.783Z,7.48
2016-11-27T00:55:23.138Z,7.47
2016-11-27T00:56:15.277Z,7.48
2016-11-27T00:56:37.000Z,7.45
2016-11-27T00:57:29.991Z,7.49
2016-11-27T00:57:56.482Z,7.48
2016-11-27T00:58:28.747Z,7.50
2016-11-27T00:58:56.259Z,7.51
2016-11-27T00:59:49.270Z,7.58
2016-11-27T01:00:37.491Z,7.57
2016-11-27T01:00:59.222Z,7.55
2016-11-27T01:01:20.964Z,7.55
2016-11-27T01:01:45.309Z,7.57
2016-11-27T01:02:08.034Z,7.56
2016-11-27T01:02:29.767Z,7.59
2016-11-27T01:02:51.532Z,7.59
2016-11-27T01:03:39.941Z,7.54
2016-11-27T01:04:01.641Z,7.51
2016-11-27T01:04:23.378Z,7.52
2016-11-27T01:04:45.107Z,7.51
2016-11-27T01:06:04.613Z,7.53
2016-11-27T01:06:29.355Z,7.55
2016-11-27T01:06:52.087Z,7.57
2016-11-27T01:07:18.610Z,7.58
2016-11-27T01:07:42.345Z,7.60
2016-11-27T01:08:35.364Z,7.55
2016-11-27T01:08:57.089Z,7.50
2016-11-27T01:09:18.830Z,7.46
2016-11-27T01:09:40.619Z,7.42
2016-11-27T01:10:02.383Z,7.40
2016-11-27T01:10:24.149Z,7.41
2016-11-27T01:10:45.866Z,7.42
2016-11-27T01:11:08.609Z,7.42
2016-11-27T01:11:30.338Z,7.42
2016-11-27T01:11:52.068Z,7.40
2016-11-27T01:12:13.801Z,7.43
2016-11-27T01:12:35.534Z,7.45
2016-11-27T01:12:57.286Z,7.45
2016-11-27T01:13:18.998Z,7.41
2016-11-27T01:13:40.728Z,7.39
2016-11-27T01:14:02.460Z,7.37
2016-11-27T01:14:28.965Z,7.38
2016-11-27T01:14:55.458Z,7.40
2016-11-27T01:15:17.190Z,7.44
2016-11-27T01:15:38.938Z,7.46
2016-11-27T01:16:00.688Z,7.46
2016-11-27T01:16:22.435Z,7.45
2016-11-27T01:16:44.174Z,7.44
2016-11-27T01:17:05.907Z,7.44
2016-11-27T01:17:27.635Z,7.46
2016-11-27T01:17:54.139Z,7.47
2016-11-27T01:18:15.867Z,7.45
2016-11-27T01:18:38.593Z,7.45
2016-11-27T01:19:00.322Z,7.44
2016-11-27T01:19:22.062Z,7.43
2016-11-27T01:20:48.307Z,7.43
2016-11-27T01:21:14.793Z,7.48
2016-11-27T01:21:36.522Z,7.44
2016-11-27T01:22:03.029Z,7.41
2016-11-27T01:22:24.759Z,7.39
2016-11-27T01:22:46.491Z,7.37
2016-11-27T01:23:08.234Z,7.39
2016-11-27T01:23:29.967Z,7.41
2016-11-27T01:23:51.706Z,7.41
2016-11-27T01:24:13.442Z,7.47
2016-11-27T01:24:35.174Z,7.47
2016-11-27T01:24:56.902Z,7.46
2016-11-27T01:25:18.636Z,7.47
2016-11-27T01:25:40.362Z,7.46
2016-11-27T01:26:02.088Z,7.44
2016-11-27T01:26:24.806Z,7.44
2016-11-27T01:26:46.529Z,7.42
2016-11-27T01:27:08.258Z,7.40
2016-11-27T01:27:29.983Z,7.42
2016-11-27T01:27:51.710Z,7.41
2016-11-27T01:28:18.222Z,7.38
2016-11-27T01:28:44.718Z,7.38
2016-11-27T01:29:09.062Z,7.41
2016-11-27T01:29:57.293Z,7.41
2016-11-27T01:30:19.029Z,7.43
2016-11-27T01:30:40.765Z,7.42
2016-11-27T01:31:02.498Z,7.43
2016-11-27T01:31:24.233Z,7.46
2016-11-27T01:31:45.977Z,7.42
2016-11-27T01:32:07.765Z,7.39
2016-11-27T01:32:30.484Z,7.41
2016-11-27T01:32:52.207Z,7.41
2016-11-27T01:33:14.931Z,7.40
2016-11-27T01:33:36.653Z,7.41
2016-11-27T01:34:03.148Z,7.39
2016-11-27T01:34:24.921Z,7.38
2016-11-27T01:34:46.649Z,7.38
2016-11-27T01:35:08.374Z,7.36
2016-11-27T01:35:31.100Z,7.35
2016-11-27T01:35:52.821Z,7.38
2016-11-27T01:36:14.551Z,7.44
2016-11-27T01:36:36.295Z,7.48
2016-11-27T01:36:58.026Z,7.52
2016-11-27T01:37:19.760Z,7.50
2016-11-27T01:37:47.269Z,7.51
2016-11-27T01:38:09.000Z,7.49
2016-11-27T01:38:33.384Z,7.43
2016-11-27T01:38:55.117Z,7.39
2016-11-27T01:39:16.850Z,7.39
2016-11-27T01:39:38.570Z,7.38
2016-11-27T01:40:05.060Z,7.35
2016-11-27T01:40:26.787Z,7.34
2016-11-27T01:40:48.515Z,7.40
2016-11-27T01:41:12.272Z,7.42
2016-11-27T01:41:34.008Z,7.40
2016-11-27T01:41:55.745Z,7.42
2016-11-27T01:42:18.464Z,7.46
2016-11-27T01:42:40.206Z,7.49
2016-11-27T01:43:06.696Z,7.50
2016-11-27T01:43:29.434Z,7.52
2016-11-27T01:43:51.180Z,7.54
2016-11-27T01:44:12.896Z,7.56
2016-11-27T01:44:35.624Z,7.58
2016-11-27T01:44:57.360Z,7.55
2016-11-27T01:45:23.925Z,7.49
2016-11-27T01:45:46.649Z,7.47
2016-11-27T01:46:08.397Z,7.45
2016-11-27T01:46:31.145Z,7.40
2016-11-27T01:46:52.879Z,7.36
2016-11-27T01:47:14.635Z,7.35
2016-11-27T01:47:36.355Z,7.37
2016-11-27T01:47:58.073Z,7.38
2016-11-27T01:48:19.802Z,7.40
2016-11-27T01:48:41.549Z,7.43
2016-11-27T01:49:29.778Z,7.43
2016-11-27T01:49:51.507Z,7.46
2016-11-27T01:50:13.230Z,7.50
2016-11-27T01:50:35.003Z,7.48
2016-11-27T01:50:56.739Z,7.45
2016-11-27T01:51:18.489Z,7.47
2016-11-27T01:51:40.226Z,7.45
2016-11-27T01:52:01.968Z,7.41
2016-11-27T01:52:24.698Z,7.41
2016-11-27T01:53:40.433Z,7.42
2016-11-27T01:54:06.931Z,7.42
2016-11-27T01:54:28.707Z,7.41
2016-11-27T01:54:50.442Z,7.38
2016-11-27T01:55:12.180Z,7.33
2016-11-27T01:55:33.909Z,7.36
2016-11-27T01:55:56.630Z,7.40
2016-11-27T01:56:18.384Z,7.38
2016-11-27T01:56:40.122Z,7.36
2016-11-27T01:57:01.852Z,7.28
2016-11-27T01:57:23.582Z,7.29
2016-11-27T01:57:45.315Z,7.27
2016-11-27T01:58:07.046Z,7.29
2016-11-27T01:58:29.813Z,7.31
2016-11-27T01:58:52.539Z,7.34
2016-11-27T01:59:14.279Z,7.39
2016-11-27T01:59:36.035Z,7.44
2016-11-27T01:59:57.753Z,7.47
2016-11-27T02:00:19.498Z,7.48
2016-11-27T02:00:41.239Z,7.46
2016-11-27T02:01:02.971Z,7.40
2016-11-27T02:01:24.704Z,7.41
2016-11-27T02:01:46.437Z,7.47
2016-11-27T02:02:08.165Z,7.50
2016-11-27T02:02:30.900Z,7.54
2016-11-27T02:02:52.640Z,7.55
2016-11-27T02:03:14.375Z,7.57
2016-11-27T02:03:36.099Z,7.58
2016-11-27T02:03:57.848Z,7.59
2016-11-27T02:04:19.587Z,7.61
2016-11-27T02:04:41.313Z,7.59
2016-11-27T02:05:07.813Z,7.54
2016-11-27T02:05:29.562Z,7.45
2016-11-27T02:05:51.305Z,7.46
2016-11-27T02:06:13.027Z,7.43
2016-11-27T02:06:34.746Z,7.42
2016-11-27T02:06:56.507Z,7.43
2016-11-27T02:07:18.244Z,7.45
2016-11-27T02:07:39.980Z,7.48
2016-11-27T02:08:01.723Z,7.51
2016-11-27T02:08:23.457Z,7.50
2016-11-27T02:08:45.180Z,7.46
2016-11-27T02:09:06.942Z,7.47
2016-11-27T02:09:28.684Z,7.49
2016-11-27T02:10:16.907Z,7.46
2016-11-27T02:10:38.633Z,7.46
2016-11-27T02:11:00.373Z,7.48
2016-11-27T02:11:22.106Z,7.47
2016-11-27T02:11:43.860Z,7.46
2016-11-27T02:12:05.653Z,7.43
2016-11-27T02:12:27.405Z,7.45
2016-11-27T02:12:49.133Z,7.46
2016-11-27T02:13:11.859Z,7.44
2016-11-27T02:13:33.585Z,7.42
2016-11-27T02:13:55.313Z,7.45
2016-11-27T02:14:21.812Z,7.44
2016-11-27T02:14:43.551Z,7.43
2016-11-27T02:15:06.293Z,7.46
2016-11-27T02:15:28.014Z,7.47
2016-11-27T02:15:49.740Z,7.50
2016-11-27T02:16:11.477Z,7.50
2016-11-27T02:16:33.207Z,7.50
2016-11-27T02:16:54.987Z,7.50
2016-11-27T02:17:16.735Z,7.52
2016-11-27T02:17:38.458Z,7.55
2016-11-27T02:18:00.193Z,7.57
2016-11-27T02:18:48.417Z,7.59
2016-11-27T02:19:39.341Z,7.63
2016-11-27T02:20:01.087Z,7.63
2016-11-27T02:20:23.837Z,7.60
2016-11-27T02:20:45.563Z,7.60
2016-11-27T02:21:08.301Z,7.62
2016-11-27T02:21:31.023Z,7.60
2016-11-27T02:21:55.359Z,7.57
2016-11-27T02:22:24.702Z,7.50
2016-11-27T02:22:51.211Z,7.45
2016-11-27T02:23:17.695Z,7.43
2016-11-27T02:23:39.436Z,7.43
2016-11-27T02:24:01.165Z,7.43
2016-11-27T02:24:22.902Z,7.42
2016-11-27T02:24:44.645Z,7.43
2016-11-27T02:25:06.370Z,7.46
2016-11-27T02:25:28.090Z,7.43
2016-11-27T02:25:49.903Z,7.44
2016-11-27T02:26:11.638Z,7.48
2016-11-27T02:26:33.366Z,7.49
2016-11-27T02:26:55.091Z,7.47
2016-11-27T02:27:16.830Z,7.40
2016-11-27T02:27:39.563Z,7.37
2016-11-27T02:28:06.059Z,7.37
2016-11-27T02:28:27.774Z,7.38
2016-11-27T02:28:49.486Z,7.40
2016-11-27T02:29:11.222Z,7.42
2016-11-27T02:29:37.718Z,7.42
2016-11-27T02:29:59.455Z,7.45
2016-11-27T02:30:21.175Z,7.43
2016-11-27T02:30:42.903Z,7.46
2016-11-27T02:31:04.636Z,7.46
2016-11-27T02:31:26.381Z,7.42
2016-11-27T02:31:48.115Z,7.43
2016-11-27T02:32:09.839Z,7.44
2016-11-27T02:32:36.333Z,7.45
2016-11-27T02:32:58.062Z,7.48
2016-11-27T02:33:19.797Z,7.50
2016-11-27T02:33:42.526Z,7.51
2016-11-27T02:34:04.247Z,7.49
2016-11-27T02:34:25.976Z,7.45
2016-11-27T02:35:14.198Z,7.44
2016-11-27T02:35:35.929Z,7.46
2016-11-27T02:35:58.677Z,7.44
2016-11-27T02:36:20.410Z,7.41
2016-11-27T02:36:42.147Z,7.40
2016-11-27T02:37:03.953Z,7.35
2016-11-27T02:37:26.685Z,7.34
2016-11-27T02:37:48.443Z,7.33
2016-11-27T02:38:10.178Z,7.31
2016-11-27T02:38:31.914Z,7.37
2016-11-27T02:38:53.648Z,7.38
2016-11-27T02:39:15.374Z,7.38
2016-11-27T02:39:37.121Z,7.37
2016-11-27T02:39:58.861Z,7.33
2016-11-27T02:40:20.602Z,7.37
2016-11-27T02:40:42.323Z,7.41
2016-11-27T02:41:04.056Z,7.40
2016-11-27T02:41:25.795Z,7.40
2016-11-27T02:41:47.530Z,7.40
2016-11-27T02:42:14.023Z,7.40
2016-11-27T02:42:35.753Z,7.44
2016-11-27T02:42:57.490Z,7.46
2016-11-27T02:43:19.222Z,7.45
2016-11-27T02:43:40.964Z,7.43
2016-11-27T02:44:02.710Z,7.42
2016-11-27T02:44:24.437Z,7.38
2016-11-27T02:44:46.170Z,7.38
2016-11-27T02:45:07.900Z,7.38
2016-11-27T02:45:29.625Z,7.36
2016-11-27T02:45:51.358Z,7.33
2016-11-27T02:46:13.124Z,7.31
2016-11-27T02:46:34.855Z,7.31
2016-11-27T02:46:56.599Z,7.32
2016-11-27T02:47:18.330Z,7.30
2016-11-27T02:47:40.061Z,7.33
2016-11-27T02:48:01.782Z,7.31
2016-11-27T02:48:23.495Z,7.28
2016-11-27T02:48:45.233Z,7.30
2016-11-27T02:49:06.958Z,7.26
2016-11-27T02:49:28.687Z,7.23
2016-11-27T02:49:50.412Z,7.23
2016-11-27T02:50:12.143Z,7.23
2016-11-27T02:50:33.869Z,7.25
2016-11-27T02:50:55.603Z,7.24
2016-11-27T02:51:17.339Z,7.28
2016-11-27T02:52:05.586Z,7.24
2016-11-27T02:52:27.326Z,7.30
2016-11-27T02:52:49.108Z,7.31
2016-11-27T02:53:10.840Z,7.36
2016-11-27T02:53:32.573Z,7.39
2016-11-27T02:53:54.306Z,7.37
2016-11-27T02:54:16.037Z,7.37
2016-11-27T02:54:37.771Z,7.31
2016-11-27T02:54:59.497Z,7.25
2016-11-27T02:55:21.239Z,7.21
2016-11-27T02:55:42.963Z,7.20
2016-11-27T02:56:10.451Z,7.17
2016-11-27T02:56:32.178Z,7.15
2016-11-27T02:56:53.911Z,7.14
2016-11-27T02:57:15.632Z,7.17
2016-11-27T02:57:37.375Z,7.20
2016-11-27T02:57:59.092Z,7.23
2016-11-27T02:58:20.833Z,7.26
2016-11-27T02:58:42.644Z,7.22
2016-11-27T02:59:04.399Z,7.18
2016-11-27T02:59:26.142Z,7.15
2016-11-27T02:59:47.863Z,7.19
2016-11-27T03:00:09.583Z,7.21
2016-11-27T03:00:31.347Z,7.22
2016-11-27T03:00:53.076Z,7.20
2016-11-27T03:01:14.800Z,7.17
2016-11-27T03:01:36.538Z,7.21
2016-11-27T03:01:58.272Z,7.22
2016-11-27T03:02:20.012Z,7.16
2016-11-27T03:02:41.754Z,7.11
2016-11-27T03:03:03.487Z,7.08
2016-11-27T03:03:26.219Z,7.09
2016-11-27T03:03:47.956Z,7.08
2016-11-27T03:04:09.711Z,7.07
2016-11-27T03:04:31.459Z,7.03
2016-11-27T03:04:53.203Z,7.00
2016-11-27T03:05:14.928Z,6.99
2016-11-27T03:05:36.668Z,6.99
2016-11-27T03:05:58.394Z,6.95
2016-11-27T03:06:20.128Z,6.96
2016-11-27T03:06:41.843Z,6.92
2016-11-27T03:07:03.578Z,6.92
2016-11-27T03:07:25.305Z,6.90
2016-11-27T03:07:47.031Z,6.89
2016-11-27T03:08:08.758Z,6.90
2016-11-27T03:08:30.490Z,6.91
2016-11-27T03:08:52.225Z,6.92
2016-11-27T03:09:13.961Z,6.92
2016-11-27T03:09:35.682Z,6.97
2016-11-27T03:09:57.402Z,6.96
2016-11-27T03:10:23.903Z,6.97
2016-11-27T03:10:45.646Z,7.02
2016-11-27T03:11:33.861Z,7.09
2016-11-27T03:11:55.596Z,7.05
2016-11-27T03:12:17.435Z,7.00
2016-11-27T03:12:39.170Z,6.96
2016-11-27T03:13:00.905Z,6.94
2016-11-27T03:13:22.638Z,6.96
2016-11-27T03:13:44.370Z,6.91
2016-11-27T03:14:06.101Z,6.87
2016-11-27T03:14:27.839Z,6.85
2016-11-27T03:14:59.105Z,6.85
2016-11-27T03:15:20.865Z,6.84
2016-11-27T03:15:42.586Z,6.86
2016-11-27T03:16:05.331Z,6.93
2016-11-27T03:16:27.103Z,6.99
2016-11-27T03:16:49.829Z,7.02
2016-11-27T03:17:12.549Z,7.04
2016-11-27T03:17:34.283Z,7.01
2016-11-27T03:17:56.014Z,6.99
2016-11-27T03:18:17.759Z,6.96
2016-11-27T03:18:44.253Z,6.95
2016-11-27T03:19:05.988Z,6.94
2016-11-27T03:19:32.496Z,6.91
2016-11-27T03:19:54.234Z,6.89
2016-11-27T03:20:20.724Z,6.85
2016-11-27T03:20:47.219Z,6.84
2016-11-27T03:21:08.961Z,6.86
2016-11-27T03:21:30.690Z,6.87
2016-11-27T03:22:19.923Z,6.88
2016-11-27T03:22:41.657Z,6.89
2016-11-27T03:23:03.394Z,6.88
2016-11-27T03:23:26.138Z,6.86
2016-11-27T03:23:47.878Z,6.81
2016-11-27T03:24:09.610Z,6.83
2016-11-27T03:24:31.335Z,6.81
2016-11-27T03:24:53.071Z,6.79
2016-11-27T03:25:14.814Z,6.75
2016-11-27T03:25:37.539Z,6.73
2016-11-27T03:25:59.274Z,6.72
2016-11-27T03:26:21.009Z,6.76
2016-11-27T03:26:42.742Z,6.76
2016-11-27T03:27:04.484Z,6.75
2016-11-27T03:27:26.211Z,6.75
2016-11-27T03:27:47.933Z,6.72
2016-11-27T03:28:10.662Z,6.71
2016-11-27T03:28:32.386Z,6.71
2016-11-27T03:28:54.127Z,6.71
2016-11-27T03:29:15.862Z,6.70
2016-11-27T03:29:37.591Z,6.70
2016-11-27T03:30:00.309Z,6.71
2016-11-27T03:30:22.044Z,6.68
2016-11-27T03:30:43.771Z,6.74
2016-11-27T03:31:10.274Z,6.75
2016-11-27T03:31:31.998Z,6.77
2016-11-27T03:31:53.743Z,6.83
2016-11-27T03:32:15.469Z,6.84
2016-11-27T03:32:37.199Z,6.79
2016-11-27T03:32:58.925Z,6.78
2016-11-27T03:33:20.662Z,6.82
2016-11-27T03:33:42.387Z,6.85
2016-11-27T03:34:04.117Z,6.90
2016-11-27T03:34:25.870Z,6.92
2016-11-27T03:34:47.601Z,6.92
2016-11-27T03:35:09.327Z,6.88
2016-11-27T03:35:31.061Z,6.89
2016-11-27T03:36:19.277Z,6.87
2016-11-27T03:36:41.016Z,6.83
2016-11-27T03:37:02.743Z,6.82
2016-11-27T03:37:24.487Z,6.86
2016-11-27T03:37:51.068Z,6.86
2016-11-27T03:38:12.810Z,6.82
2016-11-27T03:38:34.537Z,6.74
2016-11-27T03:38:56.269Z,6.69
2016-11-27T03:39:18.036Z,6.68
2016-11-27T03:39:39.773Z,6.67
2016-11-27T03:40:06.289Z,6.67
2016-11-27T03:40:28.108Z,6.66
2016-11-27T03:40:49.837Z,6.67
2016-11-27T03:41:11.563Z,6.67
2016-11-27T03:41:33.292Z,6.68
2016-11-27T03:41:59.798Z,6.72
2016-11-27T03:42:21.519Z,6.77
2016-11-27T03:42:43.248Z,6.76
2016-11-27T03:43:04.989Z,6.78
2016-11-27T03:43:26.715Z,6.78
2016-11-27T03:43:48.467Z,6.75
2016-11-27T03:44:10.193Z,6.73
2016-11-27T03:44:42.460Z,6.69
2016-11-27T03:45:07.286Z,6.71
2016-11-27T03:45:52.690Z,6.76
2016-11-27T03:46:14.503Z,6.72
2016-11-27T03:46:36.221Z,6.67
2016-11-27T03:46:57.944Z,6.63
2016-11-27T03:47:19.664Z,6.63
2016-11-27T03:47:41.589Z,6.67
2016-11-27T03:48:03.315Z,6.73
2016-11-27T03:48:25.208Z,6.77
2016-11-27T03:48:46.970Z,6.81
2016-11-27T03:49:08.662Z,6.81
2016-11-27T03:49:31.381Z,6.80
2016-11-27T03:49:53.112Z,6.78
2016-11-27T03:50:14.843Z,6.73
2016-11-27T03:50:36.594Z,6.67
2016-11-27T03:50:59.323Z,6.60
2016-11-27T03:51:21.040Z,6.58
2016-11-27T03:51:47.625Z,6.53
2016-11-27T03:52:09.418Z,6.46
2016-11-27T03:52:31.166Z,6.42
2016-11-27T03:52:52.888Z,6.42
2016-11-27T03:53:14.624Z,6.38
2016-11-27T03:53:36.343Z,6.34
2016-11-27T03:54:07.609Z,6.34
2016-11-27T03:54:29.342Z,6.35
2016-11-27T03:54:51.084Z,6.40
2016-11-27T03:55:12.849Z,6.48
2016-11-27T03:55:34.647Z,6.54
2016-11-27T03:55:56.369Z,6.52
2016-11-27T03:56:18.231Z,6.52
2016-11-27T03:56:39.960Z,6.51
2016-11-27T03:57:01.763Z,6.55
2016-11-27T03:57:23.496Z,6.54
2016-11-27T03:57:45.215Z,6.53
2016-11-27T03:58:06.966Z,6.50
2016-11-27T03:58:28.698Z,6.49
2016-11-27T03:58:50.422Z,6.48
2016-11-27T03:59:12.212Z,6.48
2016-11-27T03:59:33.964Z,6.48
2016-11-27T03:59:55.737Z,6.52
2016-11-27T04:00:17.610Z,6.59
2016-11-27T04:00:39.373Z,6.61
2016-11-27T04:01:01.103Z,6.59
2016-11-27T04:01:22.826Z,6.54
2016-11-27T04:01:44.550Z,6.49
2016-11-27T04:02:06.300Z,6.45
2016-11-27T04:02:28.033Z,6.41
2016-11-27T04:02:49.805Z,6.38
2016-11-27T04:03:11.544Z,6.36
2016-11-27T04:03:33.270Z,6.36
2016-11-27T04:03:55.012Z,6.33
2016-11-27T04:04:16.724Z,6.33
2016-11-27T04:04:38.445Z,6.32
2016-11-27T04:05:00.175Z,6.29
2016-11-27T04:05:21.906Z,6.35
2016-11-27T04:05:43.749Z,6.40
2016-11-27T04:06:05.565Z,6.38
2016-11-27T04:06:27.345Z,6.36
2016-11-27T04:06:49.072Z,6.33
2016-11-27T04:07:10.802Z,6.33
2016-11-27T04:07:32.511Z,6.34
2016-11-27T04:07:55.245Z,6.35
2016-11-27T04:08:16.975Z,6.36
2016-11-27T04:08:38.702Z,6.41
2016-11-27T04:09:00.433Z,6.43
2016-11-27T04:09:27.015Z,6.45
2016-11-27T04:09:48.760Z,6.47
2016-11-27T04:10:16.253Z,6.47
2016-11-27T04:10:37.973Z,6.46
2016-11-27T04:10:59.710Z,6.44
2016-11-27T04:11:21.440Z,6.42
2016-11-27T04:11:43.169Z,6.42
2016-11-27T04:12:04.905Z,6.40
2016-11-27T04:12:26.651Z,6.39
2016-11-27T04:12:48.398Z,6.46
2016-11-27T04:13:10.221Z,6.45
2016-11-27T04:13:32.086Z,6.47
2016-11-27T04:13:54.789Z,6.43
2016-11-27T04:14:16.528Z,6.45
2016-11-27T04:14:38.267Z,6.44
2016-11-27T04:14:59.983Z,6.42
2016-11-27T04:15:21.714Z,6.40
2016-11-27T04:15:43.433Z,6.33
2016-11-27T04:16:05.161Z,6.27
2016-11-27T04:16:26.891Z,6.23
2016-11-27T04:16:48.620Z,6.20
2016-11-27T04:17:10.340Z,6.21
2016-11-27T04:17:32.073Z,6.23
2016-11-27T04:17:53.799Z,6.23
2016-11-27T04:18:15.521Z,6.23
2016-11-27T04:18:37.240Z,6.19
2016-11-27T04:18:59.972Z,6.15
2016-11-27T04:19:21.719Z,6.15
2016-11-27T04:19:43.439Z,6.17
2016-11-27T04:20:05.164Z,6.26
2016-11-27T04:20:26.890Z,6.29
2016-11-27T04:20:52.299Z,6.31
2016-11-27T04:21:14.016Z,6.34
2016-11-27T04:21:35.737Z,6.33
2016-11-27T04:21:57.455Z,6.34
2016-11-27T04:22:19.193Z,6.35
2016-11-27T04:22:40.966Z,6.35
2016-11-27T04:23:02.712Z,6.37
2016-11-27T04:23:24.434Z,6.44
2016-11-27T04:23:46.161Z,6.43
2016-11-27T04:24:07.900Z,6.40
2016-11-27T04:24:29.627Z,6.41
2016-11-27T04:24:51.362Z,6.41
2016-11-27T04:25:13.074Z,6.42
2016-11-27T04:25:39.561Z,6.46
2016-11-27T04:26:01.290Z,6.53
2016-11-27T04:26:22.997Z,6.50
2016-11-27T04:26:44.755Z,6.43
2016-11-27T04:27:06.559Z,6.40
2016-11-27T04:27:28.319Z,6.40
2016-11-27T04:27:50.177Z,6.40
2016-11-27T04:28:11.875Z,6.40
2016-11-27T04:28:33.595Z,6.40
2016-11-27T04:28:55.323Z,6.43
2016-11-27T04:29:17.044Z,6.45
2016-11-27T04:29:38.914Z,6.45
2016-11-27T04:30:00.704Z,6.48
2016-11-27T04:30:22.424Z,6.51
2016-11-27T04:30:44.290Z,6.52
2016-11-27T04:31:06.093Z,6.51
2016-11-27T04:31:27.829Z,6.49
2016-11-27T04:31:49.648Z,6.43
2016-11-27T04:32:11.402Z,6.41
2016-11-27T04:32:33.126Z,6.44
2016-11-27T04:32:54.845Z,6.42
2016-11-27T04:33:16.567Z,6.40
2016-11-27T04:33:38.287Z,6.39
2016-11-27T04:34:00.038Z,6.43
2016-11-27T04:34:21.762Z,6.47
2016-11-27T04:34:44.479Z,6.40
2016-11-27T04:35:06.204Z,6.40
2016-11-27T04:35:27.933Z,6.38
2016-11-27T04:35:49.801Z,6.35
2016-11-27T04:36:11.524Z,6.32
2016-11-27T04:36:33.247Z,6.28
2016-11-27T04:36:54.970Z,6.27
2016-11-27T04:37:16.695Z,6.19
2016-11-27T04:37:38.445Z,6.14
2016-11-27T04:38:00.206Z,6.13
2016-11-27T04:38:21.924Z,6.09
2016-11-27T04:38:48.460Z,6.11
2016-11-27T04:39:10.235Z,6.13
2016-11-27T04:39:37.731Z,6.09
2016-11-27T04:40:00.586Z,6.14
2016-11-27T04:40:22.310Z,6.21
2016-11-27T04:40:44.062Z,6.27
2016-11-27T04:41:05.809Z,6.31
2016-11-27T04:41:27.684Z,6.33
2016-11-27T04:41:49.442Z,6.30
2016-11-27T04:42:37.753Z,6.29
2016-11-27T04:43:00.516Z,6.36
2016-11-27T04:43:22.244Z,6.39
2016-11-27T04:43:48.739Z,6.40
2016-11-27T04:44:10.463Z,6.45
2016-11-27T04:44:32.210Z,6.40
2016-11-27T04:44:53.925Z,6.30
2016-11-27T04:45:15.665Z,6.26
2016-11-27T04:45:37.486Z,6.26
2016-11-27T04:45:59.296Z,6.31
2016-11-27T04:46:21.054Z,6.36
2016-11-27T04:46:42.769Z,6.36
2016-11-27T04:47:07.257Z,6.39
2016-11-27T04:47:29.120Z,6.38
2016-11-27T04:47:51.840Z,6.38
2016-11-27T04:48:13.560Z,6.43
2016-11-27T04:48:35.292Z,6.49
2016-11-27T04:48:57.022Z,6.47
2016-11-27T04:49:18.747Z,6.48
2016-11-27T04:49:41.468Z,6.47
2016-11-27T04:50:03.206Z,6.41
2016-11-27T04:50:27.784Z,6.38
2016-11-27T04:50:56.314Z,6.30
2016-11-27T04:51:18.125Z,6.28
2016-11-27T04:51:39.955Z,6.29
2016-11-27T04:52:01.747Z,6.35
2016-11-27T04:52:23.469Z,6.32
2016-11-27T04:52:45.195Z,6.28
2016-11-27T04:53:06.914Z,6.29
2016-11-27T04:53:28.646Z,6.31
2016-11-27T04:53:50.376Z,6.28
2016-11-27T04:54:12.099Z,6.32
2016-11-27T04:54:33.815Z,6.35
2016-11-27T04:54:55.537Z,6.35
2016-11-27T04:55:17.269Z,6.33
2016-11-27T04:55:38.992Z,6.40
2016-11-27T04:56:00.789Z,6.41
2016-11-27T04:56:22.509Z,6.40
2016-11-27T04:56:45.242Z,6.37
2016-11-27T04:57:06.976Z,6.36
2016-11-27T04:57:28.704Z,6.34
2016-11-27T04:58:16.934Z,6.31
2016-11-27T04:58:40.651Z,6.31
2016-11-27T04:59:02.384Z,6.32
2016-11-27T04:59:25.112Z,6.31
2016-11-27T04:59:46.971Z,6.36
2016-11-27T05:00:08.709Z,6.35
2016-11-27T05:00:30.509Z,6.32
2016-11-27T05:00:52.254Z,6.30
2016-11-27T05:01:14.027Z,6.26
2016-11-27T05:01:35.755Z,6.21
2016-11-27T05:01:57.499Z,6.15
2016-11-27T05:02:22.043Z,6.12
2016-11-27T05:02:43.948Z,6.11
2016-11-27T05:03:05.772Z,6.09
2016-11-27T05:03:27.522Z,6.15
2016-11-27T05:03:49.244Z,6.25
2016-11-27T05:04:10.966Z,6.24
2016-11-27T05:04:32.738Z,6.20
2016-11-27T05:04:54.511Z,6.14
2016-11-27T05:05:16.246Z,6.11
2016-11-27T05:05:38.062Z,6.15
2016-11-27T05:05:59.856Z,6.24
2016-11-27T05:06:24.471Z,6.31
2016-11-27T05:06:46.293Z,6.38
2016-11-27T05:07:08.035Z,6.43
2016-11-27T05:07:29.759Z,6.46
2016-11-27T05:07:51.499Z,6.49
2016-11-27T05:08:13.227Z,6.54
2016-11-27T05:08:34.952Z,6.55
2016-11-27T05:08:56.756Z,6.59
2016-11-27T05:09:18.520Z,6.62
2016-11-27T05:09:40.251Z,6.67
2016-11-27T05:10:06.824Z,6.67